Latest Weather Observations for Hartz Mountains

IDT60801

Issued at 6:01 pm EST Saturday 4 July 2015 (issued every 30 minutes, with the page automatically refreshed every 10 minutes)

About weather observations | Map of weather stations | Latest weather observations for TAS | Other Formats
Station Details ID: 094191 Name: HARTZ MOUNTAIN (KEOGHS PIMPLE) Lat: -43.20 Lon: 146.77 Height: 831.0 m
Data from the previous 72 hours. | See also: Recent months at Hartz Mountains
Date/Time
EST
Temp
°C
App
Temp
°C
Dew
Point
Rel
Hum
%
Delta-T
°C
Wind Press
QNH
hPa
Press
MSL
hPa
Rain
since 9 am
mm
Dir
 
Spd
km/h
Gust
km/h
Spd
kts
Gust
kts
04/06:00pm 1.5 -4.5 0.9 96 0.2 W 22 37 12 20 - - 0.2
04/05:30pm 1.5 -3.2 0.6 94 0.4 WNW 15 30 8 16 - - 0.2
04/05:00pm 1.7 -4.7 0.8 94 0.4 WNW 24 39 13 21 - - 0.2
04/04:30pm 1.9 -5.3 0.7 92 0.5 WNW 28 46 15 25 - - 0.2
04/04:00pm 2.1 -5.2 0.3 88 0.7 WNW 28 50 15 27 - - 0.2
04/03:33pm 2.2 -5.1 0.1 86 0.8 WNW 28 63 15 34 - - 0.2
04/03:30pm 2.3 -4.6 0.0 85 0.9 WNW 26 43 14 23 - - 0.2
04/03:00pm 2.4 -5.6 0.1 85 0.9 W 32 54 17 29 - - 0.2
04/02:30pm 2.7 -7.9 0.6 86 0.8 W 46 72 25 39 - - 0.2
04/02:00pm 3.1 -7.2 0.5 83 1.0 W 44 70 24 38 - - 0.2
04/01:30pm 3.1 -7.1 0.8 85 0.9 W 44 74 24 40 - - 0.2
04/01:00pm 3.1 -6.5 1.2 87 0.8 W 41 65 22 35 - - 0.2
04/12:30pm 3.0 -6.6 1.2 88 0.7 W 41 70 22 38 - - 0.2
04/12:00pm 3.0 -5.8 1.2 88 0.7 W 37 63 20 34 - - 0.2
04/11:30am 2.9 -6.0 0.8 86 0.8 W 37 69 20 37 - - 0.2
04/11:00am 3.0 -5.8 1.5 90 0.6 W 37 74 20 40 - - 0.2
04/10:30am 3.3 -5.8 2.0 91 0.5 W 39 61 21 33 - - 0.2
04/10:22am 3.2 -4.8 1.9 91 0.5 W 33 65 18 35 - - 0.2
04/10:17am 3.3 -4.6 2.0 91 0.5 W 33 65 18 35 - - 0.2
04/10:15am 3.2 -5.2 1.7 90 0.6 W 35 65 19 35 - - 0.2
04/10:00am 3.3 -6.2 1.7 89 0.7 W 41 87 22 47 - - 0.2
04/09:54am 3.3 -5.0 2.0 91 0.5 W 35 74 19 40 - - 0.2
04/09:45am 3.4 -4.3 2.4 93 0.4 W 32 50 17 27 - - 0.2
04/09:42am 3.5 -4.7 2.5 93 0.4 W 35 83 19 45 - - 0.2
04/09:31am 3.4 -3.6 2.2 92 0.5 W 28 70 15 38 - - 0.2
04/09:30am 3.5 -2.6 2.5 93 0.4 W 24 48 13 26 - - 0.2
04/09:00am 3.5 -3.4 2.5 93 0.4 W 28 65 15 35 - - 2.8
04/08:59am 3.5 -3.8 2.3 92 0.5 W 30 65 16 35 - - 2.8
04/08:32am 3.8 -3.4 2.9 94 0.4 WSW 30 59 16 32 - - 2.8
04/08:30am 3.7 -2.8 2.8 94 0.4 WSW 26 59 14 32 - - 2.8
04/08:00am 4.1 -3.0 3.4 95 0.3 W 30 61 16 33 - - 2.8
04/07:30am 4.1 -2.6 3.5 96 0.3 W 28 57 15 31 - - 2.8
04/07:00am 4.2 -3.8 3.8 97 0.2 W 35 67 19 36 - - 2.8
04/06:43am 4.4 -3.2 4.1 98 0.1 W 33 65 18 35 - - 2.8
04/06:30am 4.5 -3.4 4.4 99 0.0 W 35 67 19 36 - - 2.8
04/06:00am 4.8 -4.6 4.5 98 0.1 WSW 43 83 23 45 - - 2.8
04/05:30am 5.0 -6.8 4.9 99 0.0 WSW 56 87 30 47 - - 2.8
04/05:11am 5.1 -6.9 5.0 99 0.0 WSW 57 96 31 52 - - 2.8
04/05:00am 5.0 -4.9 5.0 100 0.0 WSW 46 104 25 56 - - 2.8
04/04:53am 5.0 -4.3 5.0 100 0.0 WSW 43 104 23 56 - - 2.8
04/04:52am 5.0 -3.5 5.0 100 0.0 WSW 39 104 21 56 - - 2.8
04/04:30am 5.2 -3.3 5.2 100 0.0 WSW 39 65 21 35 - - 2.8
04/04:16am 5.3 -1.1 5.3 100 0.0 W 28 70 15 38 - - 2.6
04/04:00am 5.2 -1.6 5.2 100 0.0 W 30 69 16 37 - - 2.4
04/03:30am 4.8 -1.7 4.8 100 0.0 WNW 28 63 15 34 - - 2.0
04/03:00am 4.8 -2.6 4.8 100 0.0 WNW 33 89 18 48 - - 1.8
04/02:53am 4.7 -2.2 4.7 100 0.0 W 30 89 16 48 - - 1.8
04/02:32am 4.3 -2.3 4.3 100 0.0 W 28 54 15 29 - - 1.6
04/02:30am 4.3 -1.5 4.3 100 0.0 W 24 50 13 27 - - 1.6
04/02:00am 3.8 -2.9 3.8 100 0.0 W 28 54 15 29 - - 1.4
04/01:51am 3.7 -4.3 3.7 100 0.0 WNW 35 69 19 37 - - 1.4
04/01:48am 3.7 -3.9 3.7 100 0.0 WNW 33 69 18 37 - - 1.4
04/01:46am 3.7 -3.4 3.7 100 0.0 WNW 30 69 16 37 - - 1.4
04/01:30am 3.6 -3.9 3.6 100 0.0 W 32 57 17 31 - - 1.4
04/01:00am 3.5 -5.3 3.5 100 0.0 WNW 39 76 21 41 - - 1.4
04/12:48am 3.5 -4.2 3.5 100 0.0 WNW 33 78 18 42 - - 1.4
04/12:30am 3.3 -4.2 3.3 100 0.0 WNW 32 54 17 29 - - 1.2
04/12:00am 3.2 -6.4 3.2 100 0.0 WNW 43 83 23 45 - - 1.0
 
Date/Time
EST
Temp
°C
App
Temp
°C
Dew
Point
Rel
Hum
%
Delta-T
°C
Wind Press
QNH
hPa
Press
MSL
hPa
Rain
since 9 am
mm
Dir
 
Spd
km/h
Gust
km/h
Spd
kts
Gust
kts
03/11:59pm 3.2 -6.4 3.2 100 0.0 WNW 43 83 23 45 - - 1.0
03/11:30pm 3.0 -6.7 3.0 100 0.0 WNW 43 61 23 33 - - 1.0
03/11:00pm 2.7 -7.0 2.7 100 0.0 W 43 72 23 39 - - 1.0
03/10:30pm 2.4 -7.6 2.4 100 0.0 WNW 44 76 24 41 - - 1.0
03/10:00pm 2.3 -9.6 2.3 100 0.0 W 54 83 29 45 - - 1.0
03/09:30pm 2.1 -9.1 2.1 100 0.0 WNW 50 76 27 41 - - 1.0
03/09:11pm 2.1 -9.8 2.1 100 0.0 WNW 54 91 29 49 - - 1.0
03/09:00pm 2.1 -9.4 2.1 100 0.0 WNW 52 72 28 39 - - 1.0
03/08:31pm 2.1 -9.1 2.1 100 0.0 WNW 50 70 27 38 - - 1.0
03/08:30pm 2.0 -9.2 2.0 100 0.0 W 50 70 27 38 - - 1.0
03/08:00pm 1.8 -6.9 1.8 100 0.0 WNW 37 72 20 39 - - 1.0
03/07:46pm 1.7 -6.3 1.7 100 0.0 WNW 33 52 18 28 - - 1.0
03/07:30pm 1.7 -6.7 1.7 100 0.0 WNW 35 50 19 27 - - 1.0
03/07:00pm 1.5 -7.7 1.5 100 0.0 WNW 39 59 21 32 - - 0.8
03/06:30pm 1.5 -8.0 1.5 100 0.0 W 41 65 22 35 - - 0.8
03/06:00pm 1.5 -9.0 1.5 100 0.0 WNW 46 65 25 35 - - 0.8
03/05:57pm 1.5 -9.4 1.5 100 0.0 W 48 65 26 35 - - 0.8
03/05:51pm 1.5 -10.1 1.4 99 0.0 W 52 74 28 40 - - 0.8
03/05:30pm 1.5 -12.6 1.4 99 0.0 W 65 83 35 45 - - 0.8
03/05:01pm 1.5 -11.9 1.4 99 0.0 W 61 80 33 43 - - 0.8
03/05:00pm 1.5 -11.9 1.4 99 0.0 W 61 78 33 42 - - 0.8
03/04:30pm 1.6 -12.5 1.3 98 0.1 W 65 89 35 48 - - 0.8
03/04:03pm 1.6 -11.3 1.6 100 0.0 W 59 83 32 45 - - 0.8
03/04:00pm 1.7 -11.2 1.7 100 0.0 W 59 80 32 43 - - 0.8
03/03:56pm 1.8 -11.1 1.8 100 0.0 W 59 80 32 43 - - 0.8
03/03:30pm 1.9 -8.1 1.9 100 0.0 W 44 63 24 34 - - 0.8
03/03:02pm 1.8 -8.6 1.8 100 0.0 W 46 70 25 38 - - 0.8
03/03:00pm 1.8 -8.7 1.7 99 0.0 W 46 63 25 34 - - 0.8
03/02:30pm 1.9 -8.9 1.8 99 0.0 W 48 69 26 37 - - 0.8
03/02:00pm 1.7 -8.8 1.4 98 0.1 WNW 46 65 25 35 - - 0.8
03/01:30pm 1.7 -8.4 1.6 99 0.0 WNW 44 69 24 37 - - 0.8
03/01:00pm 1.6 -7.2 1.5 99 0.0 W 37 61 20 33 - - 0.8
03/12:30pm 1.5 -8.4 1.4 99 0.0 W 43 63 23 34 - - 0.8
03/12:00pm 1.5 -11.0 1.1 97 0.2 W 56 82 30 44 - - 0.8
03/11:30am 1.5 -11.5 1.1 97 0.2 W 59 83 32 45 - - 0.8
03/11:29am 1.5 -11.5 1.1 97 0.2 W 59 83 32 45 - - 0.8
03/11:27am 1.3 -11.4 0.9 97 0.2 W 57 83 31 45 - - 0.8
03/11:00am 1.2 -9.7 1.1 99 0.0 W 48 67 26 36 - - 0.8
03/10:30am 1.0 -11.7 0.9 99 0.0 WNW 57 76 31 41 - - 0.6
03/10:00am 0.8 -9.8 0.8 100 0.0 W 46 65 25 35 - - 0.6
03/09:30am 0.5 -10.1 0.5 100 0.0 W 46 69 25 37 - - 0.4
03/09:00am 0.4 -8.9 0.4 100 0.0 W 39 69 21 37 - - 4.8
03/08:30am 0.3 -11.5 0.3 100 0.0 W 52 72 28 39 - - 4.8
03/08:00am 0.2 -11.3 0.2 100 0.0 W 50 69 27 37 - - 4.8
03/07:32am 0.2 -12.6 0.2 100 0.0 W 57 78 31 42 - - 4.8
03/07:30am 0.2 -12.6 0.2 100 0.0 W 57 70 31 38 - - 4.8
03/07:00am 0.1 -12.7 0.1 100 0.0 WSW 57 65 31 35 - - 4.8
03/06:30am 0.0 -13.6 0.0 100 0.0 W 61 67 33 36 - - 4.8
03/06:00am 0.1 -14.2 0.1 100 0.0 W 65 74 35 40 - - 4.8
03/05:30am 0.1 -14.6 0.1 100 0.0 W 67 78 36 42 - - 4.8
03/05:00am 0.0 -12.8 0.0 100 0.0 W 57 69 31 37 - - 4.8
03/04:30am -0.1 -14.8 -0.1 100 0.0 W 67 82 36 44 - - 4.8
03/04:00am 0.0 -14.0 0.0 100 0.0 W 63 82 34 44 - - 4.8
03/03:56am -0.1 -13.7 -0.1 100 0.0 W 61 80 33 43 - - 4.8
03/03:30am -0.1 -14.1 -0.1 100 0.0 W 63 76 34 41 - - 4.8
03/03:00am -0.2 -14.2 -0.2 100 0.0 W 63 76 34 41 - - 4.8
03/02:30am -0.3 -13.9 -0.3 100 0.0 WSW 61 74 33 40 - - 4.8
03/02:00am -0.3 -13.5 -0.3 100 0.0 WSW 59 72 32 39 - - 4.8
03/01:30am -0.3 -13.2 -0.3 100 0.0 WSW 57 70 31 38 - - 4.8
03/01:00am -0.4 -13.3 -0.4 100 0.0 WSW 57 70 31 38 - - 4.8
03/12:49am -0.4 -13.1 -0.4 100 0.0 WSW 56 74 30 40 - - 4.8
03/12:30am -0.4 -12.3 -0.4 100 0.0 WSW 52 65 28 35 - - 4.8
03/12:00am -0.6 -13.3 -0.6 100 0.0 WSW 56 69 30 37 - - 4.8
 
Date/Time
EST
Temp
°C
App
Temp
°C
Dew
Point
Rel
Hum
%
Delta-T
°C
Wind Press
QNH
hPa
Press
MSL
hPa
Rain
since 9 am
mm
Dir
 
Spd
km/h
Gust
km/h
Spd
kts
Gust
kts
02/11:56pm -0.6 -13.5 -0.6 100 0.0 WSW 57 76 31 41 - - 4.8
02/11:30pm -0.7 -14.8 -0.7 100 0.0 WSW 63 76 34 41 - - 4.8
02/11:00pm -0.7 -13.0 -0.7 100 0.0 WSW 54 69 29 37 - - 4.8
02/10:51pm -0.7 -12.3 -0.7 100 0.0 WSW 50 69 27 37 - - 4.8
02/10:30pm -0.8 -14.5 -0.8 100 0.0 WSW 61 72 33 39 - - 4.8
02/10:00pm -0.9 -13.7 -0.9 100 0.0 WSW 56 70 30 38 - - 4.8
02/09:30pm -0.8 -12.4 -0.8 100 0.0 WSW 50 65 27 35 - - 4.8
02/09:20pm -0.8 -11.6 -0.8 100 0.0 WSW 46 65 25 35 - - 4.8
02/09:00pm -1.0 -13.8 -1.0 100 0.0 WSW 56 70 30 38 - - 4.8
02/08:30pm -1.0 -14.0 -1.0 100 0.0 WSW 57 69 31 37 - - 4.8
02/08:00pm -1.1 -14.4 -1.1 100 0.0 WSW 59 72 32 39 - - 4.8
02/07:51pm -1.1 -13.5 -1.1 100 0.0 WSW 54 72 29 39 - - 4.8
02/07:30pm -0.9 -13.8 -0.9 100 0.0 WSW 57 72 31 39 - - 4.8
02/07:09pm -0.9 -13.3 -0.9 100 0.0 WSW 54 78 29 42 - - 4.8
02/07:00pm -0.9 -12.5 -0.9 100 0.0 WSW 50 67 27 36 - - 4.8
02/06:50pm -0.9 -12.9 -0.9 100 0.0 WSW 52 70 28 38 - - 4.8
02/06:30pm -1.0 -12.6 -1.0 100 0.0 WSW 50 65 27 35 - - 4.8
02/06:16pm -1.0 -11.9 -1.0 100 0.0 WSW 46 67 25 36 - - 4.8
02/06:00pm -1.2 -12.5 -1.2 100 0.0 WSW 48 61 26 33 - - 4.8
02/05:30pm -1.1 -13.1 -1.1 100 0.0 WSW 52 76 28 41 - - 4.8
02/05:00pm -0.9 -11.8 -0.9 100 0.0 WSW 46 67 25 36 - - 4.8
02/04:30pm -1.0 -11.5 -1.0 100 0.0 WSW 44 65 24 35 - - 4.8
02/04:00pm -1.0 -11.9 -1.0 100 0.0 WSW 46 67 25 36 - - 4.8
02/03:54pm -0.8 -11.6 -0.8 100 0.0 WSW 46 67 25 36 - - 4.8
02/03:30pm -0.8 -11.3 -0.8 100 0.0 WSW 44 61 24 33 - - 4.8
02/03:19pm -0.6 -11.8 -0.6 100 0.0 WSW 48 69 26 37 - - 4.8
02/03:00pm -0.5 -10.7 -0.5 100 0.0 WSW 43 56 23 30 - - 4.8
02/02:41pm -0.4 -9.9 -0.4 100 0.0 WSW 39 57 21 31 - - 4.6
02/02:30pm -0.2 -9.2 -0.2 100 0.0 WSW 37 50 20 27 - - 4.6
02/02:00pm -0.2 -10.4 -0.5 98 0.1 WSW 43 63 23 34 - - 4.6
02/01:54pm -0.2 -11.0 -0.5 98 0.1 WSW 46 65 25 35 - - 4.4
02/01:30pm -0.4 -11.6 -0.4 100 0.0 SW 48 65 26 35 - - 4.4
02/01:00pm -0.1 -10.5 -0.2 99 0.0 WSW 44 63 24 34 - - 4.2
02/12:30pm -0.2 -12.1 -0.3 99 0.0 WSW 52 70 28 38 - - 4.0
02/12:00pm -0.1 -10.5 -0.2 99 0.0 WSW 44 65 24 35 - - 3.8
02/11:55am 0.0 -10.2 -0.1 99 0.0 WSW 43 65 23 35 - - 3.8
02/11:53am 0.0 -10.7 -0.1 99 0.0 WSW 46 69 25 37 - - 3.8
02/11:40am -0.2 -12.9 -0.3 99 0.0 WSW 56 74 30 40 - - 3.2
02/11:30am -0.3 -14.3 -0.3 100 0.0 WSW 63 78 34 42 - - 2.8
02/11:23am -0.3 -13.0 -0.3 100 0.0 WSW 56 78 30 42 - - 2.8
02/11:16am -0.3 -10.7 -0.3 100 0.0 WSW 44 65 24 35 - - 2.6
02/11:00am -0.3 -11.1 -0.3 100 0.0 WSW 46 63 25 34 - - 2.4
02/10:40am -0.3 -11.8 -0.3 100 0.0 SW 50 69 27 37 - - 1.6
02/10:30am -0.5 -12.8 -0.5 100 0.0 WSW 54 69 29 37 - - 1.2
02/10:11am -0.3 -10.7 -0.4 99 0.0 WSW 44 63 24 34 - - 0.2
02/10:00am -0.2 -11.7 -0.3 99 0.0 WSW 50 65 27 35 - - 0.0
02/09:30am -0.5 -12.5 -0.8 98 0.1 WSW 52 70 28 38 - - 0.0
02/09:17am -0.5 -11.7 -0.6 99 0.0 WSW 48 67 26 36 - - 0.0
02/09:00am -0.7 -11.5 -0.8 99 0.0 WSW 46 61 25 33 - - 2.8
02/08:30am -0.2 -13.0 -1.2 93 0.4 WSW 56 74 30 40 - - 2.8
02/08:00am -0.6 -11.8 -1.0 97 0.1 WSW 48 67 26 36 - - 2.8
02/07:30am -0.5 -10.4 -1.1 96 0.2 WSW 41 65 22 35 - - 2.8
02/07:00am -0.6 -8.0 -0.7 99 0.0 W 28 48 15 26 - - 2.8
02/06:30am -0.8 -8.2 -0.9 99 0.0 WSW 28 48 15 26 - - 2.8
02/06:00am -0.9 -10.4 -0.9 100 0.0 WSW 39 59 21 32 - - 2.8
02/05:43am -0.8 -9.5 -0.8 100 0.0 WSW 35 54 19 29 - - 2.8
02/05:30am -0.6 -10.5 -0.7 99 0.0 WSW 41 56 22 30 - - 2.8
02/05:08am -0.6 -8.0 -0.7 99 0.0 WSW 28 50 15 27 - - 2.8
02/05:00am -0.6 -8.8 -0.7 99 0.0 WSW 32 48 17 26 - - 2.8
02/04:30am -0.5 -7.9 -0.8 98 0.1 W 28 59 15 32 - - 2.8
02/04:00am -0.5 -7.9 -0.6 99 0.0 WSW 28 50 15 27 - - 2.8
02/03:59am -0.5 -7.9 -0.6 99 0.0 WSW 28 50 15 27 - - 2.8
02/03:40am -0.3 -9.8 -0.4 99 0.0 W 39 59 21 32 - - 2.8
02/03:30am -0.4 -10.6 -0.5 99 0.0 WSW 43 70 23 38 - - 2.8
02/03:29am -0.4 -10.6 -0.4 100 0.0 WSW 43 70 23 38 - - 2.8
02/03:06am -0.5 -7.9 -0.5 100 0.0 W 28 50 15 27 - - 2.8
02/03:00am -0.6 -7.6 -0.6 100 0.0 WSW 26 48 14 26 - - 2.8
02/02:34am -0.6 -8.0 -0.7 99 0.0 W 28 50 15 27 - - 2.8
02/02:30am -0.5 -7.5 -0.6 99 0.0 W 26 48 14 26 - - 2.8
02/02:00am -0.4 -7.8 -0.4 100 0.0 W 28 56 15 30 - - 2.8
02/01:31am -0.3 -7.7 -0.6 98 0.1 W 28 67 15 36 - - 2.8
02/01:30am -0.2 -7.2 -0.5 98 0.1 W 26 67 14 36 - - 2.8
02/01:00am -0.1 -8.4 -0.4 98 0.1 WNW 33 56 18 30 - - 2.8
02/12:30am -0.1 -7.8 -0.4 98 0.1 W 30 54 16 29 - - 2.8
02/12:04am 0.0 -8.1 0.0 100 0.0 W 32 72 17 39 - - 2.6
02/12:03am 0.0 -7.3 0.0 100 0.0 W 28 46 15 25 - - 2.6
02/12:00am 0.1 -6.8 0.1 100 0.0 W 26 46 14 25 - - 2.6
 
Date/Time
EST
Temp
°C
App
Temp
°C
Dew
Point
Rel
Hum
%
Delta-T
°C
Wind Press
QNH
hPa
Press
MSL
hPa
Rain
since 9 am
mm
Dir
 
Spd
km/h
Gust
km/h
Spd
kts
Gust
kts
01/11:30pm 0.3 -8.3 0.3 100 0.0 WNW 35 59 19 32 - - 2.6
01/11:13pm 0.3 -9.4 0.2 99 0.0 WNW 41 69 22 37 - - 2.6
01/11:12pm 0.4 -9.3 0.3 99 0.0 WNW 41 69 22 37 - - 2.6
01/11:03pm 0.7 -6.1 0.6 99 0.0 W 26 54 14 29 - - 2.4
01/11:02pm 0.8 -6.0 0.7 99 0.0 W 26 57 14 31 - - 2.4
01/11:00pm 0.8 -6.0 0.7 99 0.0 W 26 65 14 35 - - 2.4
01/10:30pm 0.9 -7.6 0.8 99 0.0 WNW 35 57 19 31 - - 2.0
01/10:01pm 0.8 -9.3 0.4 97 0.2 WNW 43 72 23 39 - - 1.6
01/10:00pm 0.8 -9.3 0.4 97 0.2 WNW 43 72 23 39 - - 1.6
01/09:37pm 0.5 -9.2 0.5 100 0.0 W 41 82 22 44 - - 1.4
01/09:30pm 0.3 -9.0 0.3 100 0.0 W 39 72 21 39 - - 1.4
01/09:19pm 0.5 -8.8 0.5 100 0.0 WNW 39 82 21 44 - - 1.2
01/09:00pm 0.6 -8.3 0.6 100 0.0 WNW 37 63 20 34 - - 0.8
01/08:35pm 0.2 -8.0 0.2 100 0.0 NW 33 52 18 28 - - 0.8
01/08:30pm 0.2 -8.4 0.2 100 0.0 NW 35 52 19 28 - - 0.8
01/08:02pm 0.1 -9.3 0.1 100 0.0 WNW 39 74 21 40 - - 0.8
01/08:00pm 0.1 -8.9 0.1 100 0.0 WNW 37 54 20 29 - - 0.8
01/07:30pm 0.1 -7.9 0.1 100 0.0 WSW 32 54 17 29 - - 0.8
01/07:02pm 0.3 -9.8 0.2 99 0.0 WSW 43 61 23 33 - - 0.8
01/07:00pm 0.4 -9.9 0.3 99 0.0 WSW 44 61 24 33 - - 0.8
01/06:37pm 2.9 -9.6 1.7 92 0.5 WNW 57 100 31 54 - - 0.6
01/06:30pm 4.7 -6.9 4.0 95 0.3 WNW 54 83 29 45 - - 0.4

Other Formats:

Comma delimited format used in spreadsheet applications
http://www.bom.gov.au/fwo/IDT60801/IDT60801.94977.axf

JavaScript Object Notation format (JSON) in row-major order
http://www.bom.gov.au/fwo/IDT60801/IDT60801.94977.json